sensor_id;sensor_type;location;lat;lon;timestamp;temperature;humidity
25188;DHT22;13141;50.414;8.050;2023-05-29T00:02:11;16.80;99.60
25188;DHT22;13141;50.414;8.050;2023-05-29T00:04:36;16.70;99.70
25188;DHT22;13141;50.414;8.050;2023-05-29T00:07:02;16.70;99.80
25188;DHT22;13141;50.414;8.050;2023-05-29T00:09:28;16.70;99.90
25188;DHT22;13141;50.414;8.050;2023-05-29T00:11:54;16.60;99.70
25188;DHT22;13141;50.414;8.050;2023-05-29T00:14:19;16.60;99.90
25188;DHT22;13141;50.414;8.050;2023-05-29T00:16:45;16.70;99.60
25188;DHT22;13141;50.414;8.050;2023-05-29T00:19:12;16.60;99.70
25188;DHT22;13141;50.414;8.050;2023-05-29T00:21:38;16.50;99.90
25188;DHT22;13141;50.414;8.050;2023-05-29T00:24:04;16.50;99.90
25188;DHT22;13141;50.414;8.050;2023-05-29T00:26:29;16.50;99.60
25188;DHT22;13141;50.414;8.050;2023-05-29T00:28:55;16.40;99.90
25188;DHT22;13141;50.414;8.050;2023-05-29T00:31:21;16.50;99.90
25188;DHT22;13141;50.414;8.050;2023-05-29T00:33:46;16.30;99.90
25188;DHT22;13141;50.414;8.050;2023-05-29T00:36:13;16.20;99.90
25188;DHT22;13141;50.414;8.050;2023-05-29T00:38:39;16.20;99.90
25188;DHT22;13141;50.414;8.050;2023-05-29T00:41:05;16.20;99.90
25188;DHT22;13141;50.414;8.050;2023-05-29T00:43:30;16.20;99.90
25188;DHT22;13141;50.414;8.050;2023-05-29T00:45:56;16.10;99.90
25188;DHT22;13141;50.414;8.050;2023-05-29T00:48:22;16.10;99.90
25188;DHT22;13141;50.414;8.050;2023-05-29T00:50:48;16.00;99.90
25188;DHT22;13141;50.414;8.050;2023-05-29T00:53:16;15.90;99.90
25188;DHT22;13141;50.414;8.050;2023-05-29T00:55:41;15.90;99.90
25188;DHT22;13141;50.414;8.050;2023-05-29T00:58:07;15.90;99.90
25188;DHT22;13141;50.414;8.050;2023-05-29T01:00:33;15.90;99.90
25188;DHT22;13141;50.414;8.050;2023-05-29T01:02:59;15.80;99.90
25188;DHT22;13141;50.414;8.050;2023-05-29T01:05:26;15.80;99.90
25188;DHT22;13141;50.414;8.050;2023-05-29T01:07:51;15.70;99.90
25188;DHT22;13141;50.414;8.050;2023-05-29T01:10:18;15.60;99.90
25188;DHT22;13141;50.414;8.050;2023-05-29T01:12:49;15.60;99.90
25188;DHT22;13141;50.414;8.050;2023-05-29T01:15:21;15.60;99.90
25188;DHT22;13141;50.414;8.050;2023-05-29T01:18:16;15.50;99.90
25188;DHT22;13141;50.414;8.050;2023-05-29T01:20:48;15.50;99.90
25188;DHT22;13141;50.414;8.050;2023-05-29T01:26:46;15.40;99.90
25188;DHT22;13141;50.414;8.050;2023-05-29T01:29:14;15.30;99.90
25188;DHT22;13141;50.414;8.050;2023-05-29T01:31:40;15.20;99.90
25188;DHT22;13141;50.414;8.050;2023-05-29T01:34:07;15.10;99.90
25188;DHT22;13141;50.414;8.050;2023-05-29T01:36:33;15.00;99.90
25188;DHT22;13141;50.414;8.050;2023-05-29T01:38:59;15.00;99.90
25188;DHT22;13141;50.414;8.050;2023-05-29T01:41:25;15.00;99.90
25188;DHT22;13141;50.414;8.050;2023-05-29T01:43:53;15.00;99.90
25188;DHT22;13141;50.414;8.050;2023-05-29T01:46:20;15.00;99.90
25188;DHT22;13141;50.414;8.050;2023-05-29T01:48:47;15.00;99.90
25188;DHT22;13141;50.414;8.050;2023-05-29T01:51:13;14.90;99.90
25188;DHT22;13141;50.414;8.050;2023-05-29T01:53:39;14.90;99.90
25188;DHT22;13141;50.414;8.050;2023-05-29T01:56:05;14.80;99.90
25188;DHT22;13141;50.414;8.050;2023-05-29T01:58:31;14.80;99.90
25188;DHT22;13141;50.414;8.050;2023-05-29T02:01:00;14.80;99.90
25188;DHT22;13141;50.414;8.050;2023-05-29T02:03:26;14.70;99.90
25188;DHT22;13141;50.414;8.050;2023-05-29T02:05:52;14.10;99.90
25188;DHT22;13141;50.414;8.050;2023-05-29T02:08:17;14.60;99.90
25188;DHT22;13141;50.414;8.050;2023-05-29T02:10:43;14.60;99.90
25188;DHT22;13141;50.414;8.050;2023-05-29T02:13:09;14.50;99.90
25188;DHT22;13141;50.414;8.050;2023-05-29T02:15:34;14.50;99.90
25188;DHT22;13141;50.414;8.050;2023-05-29T02:18:01;14.50;99.90
25188;DHT22;13141;50.414;8.050;2023-05-29T02:20:27;14.40;99.90
25188;DHT22;13141;50.414;8.050;2023-05-29T02:22:53;14.20;99.90
25188;DHT22;13141;50.414;8.050;2023-05-29T02:25:18;14.20;99.90
25188;DHT22;13141;50.414;8.050;2023-05-29T02:27:44;14.10;99.90
25188;DHT22;13141;50.414;8.050;2023-05-29T02:30:10;14.10;99.90
25188;DHT22;13141;50.414;8.050;2023-05-29T02:32:36;14.10;99.90
25188;DHT22;13141;50.414;8.050;2023-05-29T02:35:04;14.10;99.90
25188;DHT22;13141;50.414;8.050;2023-05-29T02:37:29;14.00;99.90
25188;DHT22;13141;50.414;8.050;2023-05-29T02:39:55;14.00;99.90
25188;DHT22;13141;50.414;8.050;2023-05-29T02:42:21;14.00;99.90
25188;DHT22;13141;50.414;8.050;2023-05-29T02:44:46;14.00;99.90
25188;DHT22;13141;50.414;8.050;2023-05-29T02:47:12;14.00;99.90
25188;DHT22;13141;50.414;8.050;2023-05-29T02:49:38;14.00;99.90
25188;DHT22;13141;50.414;8.050;2023-05-29T02:52:05;13.50;99.90
25188;DHT22;13141;50.414;8.050;2023-05-29T02:54:31;13.90;99.90
25188;DHT22;13141;50.414;8.050;2023-05-29T02:56:57;13.90;99.90
25188;DHT22;13141;50.414;8.050;2023-05-29T02:59:22;13.80;99.90
25188;DHT22;13141;50.414;8.050;2023-05-29T03:01:48;13.80;99.90
25188;DHT22;13141;50.414;8.050;2023-05-29T03:04:14;13.70;99.90
25188;DHT22;13141;50.414;8.050;2023-05-29T03:06:39;13.80;99.90
25188;DHT22;13141;50.414;8.050;2023-05-29T03:09:06;13.60;99.90
25188;DHT22;13141;50.414;8.050;2023-05-29T03:11:32;13.40;99.90
25188;DHT22;13141;50.414;8.050;2023-05-29T03:13:58;13.30;99.90
25188;DHT22;13141;50.414;8.050;2023-05-29T03:16:23;13.30;99.90
25188;DHT22;13141;50.414;8.050;2023-05-29T03:18:49;13.30;99.90
25188;DHT22;13141;50.414;8.050;2023-05-29T03:21:16;13.30;99.90
25188;DHT22;13141;50.414;8.050;2023-05-29T03:23:41;13.20;99.90
25188;DHT22;13141;50.414;8.050;2023-05-29T03:26:09;13.20;99.90
25188;DHT22;13141;50.414;8.050;2023-05-29T03:28:34;13.30;99.90
25188;DHT22;13141;50.414;8.050;2023-05-29T03:31:00;13.00;99.90
25188;DHT22;13141;50.414;8.050;2023-05-29T03:33:26;13.00;99.90
25188;DHT22;13141;50.414;8.050;2023-05-29T03:35:51;13.10;99.90
25188;DHT22;13141;50.414;8.050;2023-05-29T03:38:17;13.10;99.90
25188;DHT22;13141;50.414;8.050;2023-05-29T03:40:43;13.10;99.90
25188;DHT22;13141;50.414;8.050;2023-05-29T03:43:10;13.10;99.90
25188;DHT22;13141;50.414;8.050;2023-05-29T03:45:35;13.10;99.90
25188;DHT22;13141;50.414;8.050;2023-05-29T03:48:01;13.10;99.90
25188;DHT22;13141;50.414;8.050;2023-05-29T03:50:27;13.00;99.90
25188;DHT22;13141;50.414;8.050;2023-05-29T03:52:52;13.20;99.90
25188;DHT22;13141;50.414;8.050;2023-05-29T03:55:18;13.00;99.90
25188;DHT22;13141;50.414;8.050;2023-05-29T03:57:44;13.10;99.90
25188;DHT22;13141;50.414;8.050;2023-05-29T04:00:12;13.10;99.90
25188;DHT22;13141;50.414;8.050;2023-05-29T04:02:38;13.20;99.90
25188;DHT22;13141;50.414;8.050;2023-05-29T04:05:05;13.20;99.90
25188;DHT22;13141;50.414;8.050;2023-05-29T04:07:30;13.00;99.90
25188;DHT22;13141;50.414;8.050;2023-05-29T04:09:56;13.00;99.90
25188;DHT22;13141;50.414;8.050;2023-05-29T04:12:22;13.00;99.90
25188;DHT22;13141;50.414;8.050;2023-05-29T04:14:50;13.00;99.90
25188;DHT22;13141;50.414;8.050;2023-05-29T04:17:17;13.00;99.90
25188;DHT22;13141;50.414;8.050;2023-05-29T04:19:43;13.00;99.90
25188;DHT22;13141;50.414;8.050;2023-05-29T04:22:08;13.00;99.90
25188;DHT22;13141;50.414;8.050;2023-05-29T04:24:34;13.00;99.90
25188;DHT22;13141;50.414;8.050;2023-05-29T04:27:00;12.90;99.90
25188;DHT22;13141;50.414;8.050;2023-05-29T04:29:26;12.80;99.90
25188;DHT22;13141;50.414;8.050;2023-05-29T04:31:51;12.20;99.90
25188;DHT22;13141;50.414;8.050;2023-05-29T04:34:18;12.90;99.90
25188;DHT22;13141;50.414;8.050;2023-05-29T04:36:44;12.90;99.90
25188;DHT22;13141;50.414;8.050;2023-05-29T04:39:10;13.00;99.90
25188;DHT22;13141;50.414;8.050;2023-05-29T04:41:35;13.00;99.90
25188;DHT22;13141;50.414;8.050;2023-05-29T04:44:01;13.00;99.90
25188;DHT22;13141;50.414;8.050;2023-05-29T04:46:27;12.90;99.90
25188;DHT22;13141;50.414;8.050;2023-05-29T04:48:53;12.90;99.90
25188;DHT22;13141;50.414;8.050;2023-05-29T04:51:20;12.70;99.90
25188;DHT22;13141;50.414;8.050;2023-05-29T04:53:46;12.50;99.90
25188;DHT22;13141;50.414;8.050;2023-05-29T04:56:11;12.40;99.90
25188;DHT22;13141;50.414;8.050;2023-05-29T04:58:37;12.50;99.90
25188;DHT22;13141;50.414;8.050;2023-05-29T05:01:03;12.60;99.90
25188;DHT22;13141;50.414;8.050;2023-05-29T05:03:29;12.70;99.90
25188;DHT22;13141;50.414;8.050;2023-05-29T05:05:55;12.80;99.90
25188;DHT22;13141;50.414;8.050;2023-05-29T05:08:22;12.80;99.90
25188;DHT22;13141;50.414;8.050;2023-05-29T05:10:47;12.90;99.90
25188;DHT22;13141;50.414;8.050;2023-05-29T05:13:13;12.80;99.90
25188;DHT22;13141;50.414;8.050;2023-05-29T05:15:39;12.90;99.90
25188;DHT22;13141;50.414;8.050;2023-05-29T05:18:04;13.00;99.90
25188;DHT22;13141;50.414;8.050;2023-05-29T05:20:30;13.00;99.90
25188;DHT22;13141;50.414;8.050;2023-05-29T05:22:57;13.10;99.90
25188;DHT22;13141;50.414;8.050;2023-05-29T05:25:24;13.20;99.90
25188;DHT22;13141;50.414;8.050;2023-05-29T05:27:50;13.20;99.90
25188;DHT22;13141;50.414;8.050;2023-05-29T05:30:15;13.20;99.90
25188;DHT22;13141;50.414;8.050;2023-05-29T05:32:41;13.30;99.90
25188;DHT22;13141;50.414;8.050;2023-05-29T05:35:07;13.40;99.90
25188;DHT22;13141;50.414;8.050;2023-05-29T05:37:33;13.30;99.90
25188;DHT22;13141;50.414;8.050;2023-05-29T05:39:59;13.40;99.90
25188;DHT22;13141;50.414;8.050;2023-05-29T05:42:26;13.40;99.90
25188;DHT22;13141;50.414;8.050;2023-05-29T05:44:52;13.40;99.90
25188;DHT22;13141;50.414;8.050;2023-05-29T05:47:18;13.40;99.90
25188;DHT22;13141;50.414;8.050;2023-05-29T05:49:44;13.40;99.90
25188;DHT22;13141;50.414;8.050;2023-05-29T05:52:09;13.50;99.90
25188;DHT22;13141;50.414;8.050;2023-05-29T05:54:35;13.60;99.90
25188;DHT22;13141;50.414;8.050;2023-05-29T05:57:00;13.70;99.90
25188;DHT22;13141;50.414;8.050;2023-05-29T05:59:27;13.80;99.90
25188;DHT22;13141;50.414;8.050;2023-05-29T06:01:53;13.90;99.90
25188;DHT22;13141;50.414;8.050;2023-05-29T06:04:19;13.90;99.90
25188;DHT22;13141;50.414;8.050;2023-05-29T06:06:44;13.90;99.90
25188;DHT22;13141;50.414;8.050;2023-05-29T06:09:10;13.90;99.90
25188;DHT22;13141;50.414;8.050;2023-05-29T06:11:36;14.10;99.90
25188;DHT22;13141;50.414;8.050;2023-05-29T06:14:01;14.10;99.90
25188;DHT22;13141;50.414;8.050;2023-05-29T06:16:29;14.20;99.90
25188;DHT22;13141;50.414;8.050;2023-05-29T06:18:54;14.20;99.90
25188;DHT22;13141;50.414;8.050;2023-05-29T06:21:20;14.30;99.90
25188;DHT22;13141;50.414;8.050;2023-05-29T06:23:46;14.40;99.90
25188;DHT22;13141;50.414;8.050;2023-05-29T06:26:12;14.50;99.90
25188;DHT22;13141;50.414;8.050;2023-05-29T06:28:37;14.70;99.90
25188;DHT22;13141;50.414;8.050;2023-05-29T06:31:03;14.80;99.90
25188;DHT22;13141;50.414;8.050;2023-05-29T06:33:30;14.90;99.90
25188;DHT22;13141;50.414;8.050;2023-05-29T06:35:56;15.10;99.90
25188;DHT22;13141;50.414;8.050;2023-05-29T06:38:21;15.00;99.90
25188;DHT22;13141;50.414;8.050;2023-05-29T06:40:47;15.10;99.90
25188;DHT22;13141;50.414;8.050;2023-05-29T06:43:13;15.20;99.90
25188;DHT22;13141;50.414;8.050;2023-05-29T06:45:38;15.30;99.90
25188;DHT22;13141;50.414;8.050;2023-05-29T06:48:04;15.40;99.90
25188;DHT22;13141;50.414;8.050;2023-05-29T06:50:31;15.50;99.90
25188;DHT22;13141;50.414;8.050;2023-05-29T06:52:57;15.60;99.90
25188;DHT22;13141;50.414;8.050;2023-05-29T06:55:22;15.70;99.90
25188;DHT22;13141;50.414;8.050;2023-05-29T06:57:48;15.80;99.90
25188;DHT22;13141;50.414;8.050;2023-05-29T07:00:15;15.90;99.90
25188;DHT22;13141;50.414;8.050;2023-05-29T07:02:40;16.00;99.90
25188;DHT22;13141;50.414;8.050;2023-05-29T07:05:06;16.10;99.90
25188;DHT22;13141;50.414;8.050;2023-05-29T07:07:34;16.20;99.90
25188;DHT22;13141;50.414;8.050;2023-05-29T07:09:59;16.40;99.90
25188;DHT22;13141;50.414;8.050;2023-05-29T07:12:25;16.50;99.90
25188;DHT22;13141;50.414;8.050;2023-05-29T07:14:50;16.70;99.90
25188;DHT22;13141;50.414;8.050;2023-05-29T07:17:16;17.00;99.90
25188;DHT22;13141;50.414;8.050;2023-05-29T07:19:43;17.30;99.90
25188;DHT22;13141;50.414;8.050;2023-05-29T07:22:08;17.70;99.90
25188;DHT22;13141;50.414;8.050;2023-05-29T07:24:35;18.10;99.90
25188;DHT22;13141;50.414;8.050;2023-05-29T07:27:01;18.30;99.90
25188;DHT22;13141;50.414;8.050;2023-05-29T07:29:27;18.50;99.90
25188;DHT22;13141;50.414;8.050;2023-05-29T07:31:52;18.80;99.90
25188;DHT22;13141;50.414;8.050;2023-05-29T07:34:18;19.00;99.90
25188;DHT22;13141;50.414;8.050;2023-05-29T07:36:57;19.30;99.90
25188;DHT22;13141;50.414;8.050;2023-05-29T07:39:23;19.60;99.90
25188;DHT22;13141;50.414;8.050;2023-05-29T07:41:50;19.80;99.90
25188;DHT22;13141;50.414;8.050;2023-05-29T07:44:16;20.00;99.90
25188;DHT22;13141;50.414;8.050;2023-05-29T07:46:42;20.20;99.90
25188;DHT22;13141;50.414;8.050;2023-05-29T07:49:07;20.50;99.90
25188;DHT22;13141;50.414;8.050;2023-05-29T07:51:33;20.70;99.90
25188;DHT22;13141;50.414;8.050;2023-05-29T07:53:59;20.80;99.90
25188;DHT22;13141;50.414;8.050;2023-05-29T07:56:24;21.00;99.90
25188;DHT22;13141;50.414;8.050;2023-05-29T07:58:51;21.20;99.90
25188;DHT22;13141;50.414;8.050;2023-05-29T08:01:17;21.50;99.90
25188;DHT22;13141;50.414;8.050;2023-05-29T08:03:43;21.70;99.90
25188;DHT22;13141;50.414;8.050;2023-05-29T08:06:08;21.90;99.50
25188;DHT22;13141;50.414;8.050;2023-05-29T08:08:34;22.10;99.50
25188;DHT22;13141;50.414;8.050;2023-05-29T08:11:00;22.30;99.90
25188;DHT22;13141;50.414;8.050;2023-05-29T08:13:25;22.50;98.90
25188;DHT22;13141;50.414;8.050;2023-05-29T08:15:53;22.60;98.70
25188;DHT22;13141;50.414;8.050;2023-05-29T08:18:18;22.80;99.00
25188;DHT22;13141;50.414;8.050;2023-05-29T08:20:44;23.10;99.50
25188;DHT22;13141;50.414;8.050;2023-05-29T08:23:09;23.30;97.90
25188;DHT22;13141;50.414;8.050;2023-05-29T08:25:35;23.50;97.80
25188;DHT22;13141;50.414;8.050;2023-05-29T08:28:01;23.60;98.20
25188;DHT22;13141;50.414;8.050;2023-05-29T08:30:27;23.90;98.20
25188;DHT22;13141;50.414;8.050;2023-05-29T08:32:54;24.10;97.90
25188;DHT22;13141;50.414;8.050;2023-05-29T08:35:20;24.30;97.30
25188;DHT22;13141;50.414;8.050;2023-05-29T08:37:45;24.50;97.20
25188;DHT22;13141;50.414;8.050;2023-05-29T08:40:11;24.70;97.10
25188;DHT22;13141;50.414;8.050;2023-05-29T08:42:43;25.00;96.70
25188;DHT22;13141;50.414;8.050;2023-05-29T08:45:13;25.20;95.50
25188;DHT22;13141;50.414;8.050;2023-05-29T08:47:40;25.30;96.50
25188;DHT22;13141;50.414;8.050;2023-05-29T08:50:08;25.60;95.60
25188;DHT22;13141;50.414;8.050;2023-05-29T08:52:35;25.70;95.60
25188;DHT22;13141;50.414;8.050;2023-05-29T08:55:00;25.90;95.60
25188;DHT22;13141;50.414;8.050;2023-05-29T08:57:28;26.10;96.40
25188;DHT22;13141;50.414;8.050;2023-05-29T08:59:55;26.30;95.10
25188;DHT22;13141;50.414;8.050;2023-05-29T09:02:21;26.40;93.90
25188;DHT22;13141;50.414;8.050;2023-05-29T09:04:47;26.50;92.90
25188;DHT22;13141;50.414;8.050;2023-05-29T09:07:14;26.70;94.30
25188;DHT22;13141;50.414;8.050;2023-05-29T09:09:40;26.90;93.50
25188;DHT22;13141;50.414;8.050;2023-05-29T09:12:06;27.10;92.70
25188;DHT22;13141;50.414;8.050;2023-05-29T09:14:33;27.10;92.40
25188;DHT22;13141;50.414;8.050;2023-05-29T09:16:58;27.20;92.90
25188;DHT22;13141;50.414;8.050;2023-05-29T09:19:25;27.40;91.30
25188;DHT22;13141;50.414;8.050;2023-05-29T09:21:51;27.40;90.80
25188;DHT22;13141;50.414;8.050;2023-05-29T09:24:19;27.60;90.60
25188;DHT22;13141;50.414;8.050;2023-05-29T09:26:50;27.80;90.70
25188;DHT22;13141;50.414;8.050;2023-05-29T09:29:16;28.00;89.70
25188;DHT22;13141;50.414;8.050;2023-05-29T09:31:45;28.20;90.30
25188;DHT22;13141;50.414;8.050;2023-05-29T09:34:11;28.40;88.60
25188;DHT22;13141;50.414;8.050;2023-05-29T09:36:38;28.60;88.20
25188;DHT22;13141;50.414;8.050;2023-05-29T09:39:03;28.70;83.60
25188;DHT22;13141;50.414;8.050;2023-05-29T09:41:30;28.70;85.90
25188;DHT22;13141;50.414;8.050;2023-05-29T09:43:56;29.00;89.00
25188;DHT22;13141;50.414;8.050;2023-05-29T09:46:22;29.20;85.90
25188;DHT22;13141;50.414;8.050;2023-05-29T09:48:48;29.50;86.50
25188;DHT22;13141;50.414;8.050;2023-05-29T09:51:20;29.60;84.70
25188;DHT22;13141;50.414;8.050;2023-05-29T09:53:46;29.80;80.50
25188;DHT22;13141;50.414;8.050;2023-05-29T09:56:12;29.80;77.00
25188;DHT22;13141;50.414;8.050;2023-05-29T09:58:40;29.90;79.00
25188;DHT22;13141;50.414;8.050;2023-05-29T10:01:07;30.00;80.10
25188;DHT22;13141;50.414;8.050;2023-05-29T10:03:33;30.30;80.50
25188;DHT22;13141;50.414;8.050;2023-05-29T10:05:58;30.50;78.10
25188;DHT22;13141;50.414;8.050;2023-05-29T10:08:26;30.50;75.00
25188;DHT22;13141;50.414;8.050;2023-05-29T10:10:55;30.50;75.90
25188;DHT22;13141;50.414;8.050;2023-05-29T10:13:25;30.60;73.00
25188;DHT22;13141;50.414;8.050;2023-05-29T10:15:55;30.70;74.60
25188;DHT22;13141;50.414;8.050;2023-05-29T10:18:25;30.50;71.80
25188;DHT22;13141;50.414;8.050;2023-05-29T10:20:52;30.60;72.00
25188;DHT22;13141;50.414;8.050;2023-05-29T10:23:22;30.60;69.50
25188;DHT22;13141;50.414;8.050;2023-05-29T10:25:50;30.70;70.20
25188;DHT22;13141;50.414;8.050;2023-05-29T10:28:16;30.70;68.10
25188;DHT22;13141;50.414;8.050;2023-05-29T10:30:47;30.90;67.80
25188;DHT22;13141;50.414;8.050;2023-05-29T10:33:30;31.00;70.10
25188;DHT22;13141;50.414;8.050;2023-05-29T10:36:04;31.30;67.40
25188;DHT22;13141;50.414;8.050;2023-05-29T10:38:32;31.50;68.20
25188;DHT22;13141;50.414;8.050;2023-05-29T10:41:28;31.70;62.50
25188;DHT22;13141;50.414;8.050;2023-05-29T10:43:54;31.70;61.00
25188;DHT22;13141;50.414;8.050;2023-05-29T10:46:19;31.70;60.90
25188;DHT22;13141;50.414;8.050;2023-05-29T10:48:49;31.70;60.70
25188;DHT22;13141;50.414;8.050;2023-05-29T10:51:26;31.70;56.20
25188;DHT22;13141;50.414;8.050;2023-05-29T10:53:52;31.90;57.10
25188;DHT22;13141;50.414;8.050;2023-05-29T10:56:22;32.00;58.00
25188;DHT22;13141;50.414;8.050;2023-05-29T10:58:52;32.20;59.20
25188;DHT22;13141;50.414;8.050;2023-05-29T11:01:21;32.20;58.70
25188;DHT22;13141;50.414;8.050;2023-05-29T11:03:49;32.20;56.00
25188;DHT22;13141;50.414;8.050;2023-05-29T11:06:18;32.40;58.20
25188;DHT22;13141;50.414;8.050;2023-05-29T11:08:45;32.50;57.90
25188;DHT22;13141;50.414;8.050;2023-05-29T11:11:12;32.90;58.80
25188;DHT22;13141;50.414;8.050;2023-05-29T11:13:38;32.80;55.80
25188;DHT22;13141;50.414;8.050;2023-05-29T11:16:11;33.00;53.40
25188;DHT22;13141;50.414;8.050;2023-05-29T11:18:39;33.00;52.60
25188;DHT22;13141;50.414;8.050;2023-05-29T11:21:23;33.00;52.60
25188;DHT22;13141;50.414;8.050;2023-05-29T11:23:52;33.00;52.70
25188;DHT22;13141;50.414;8.050;2023-05-29T11:26:20;32.90;49.40
25188;DHT22;13141;50.414;8.050;2023-05-29T11:28:46;33.10;51.60
25188;DHT22;13141;50.414;8.050;2023-05-29T11:31:12;33.20;51.80
25188;DHT22;13141;50.414;8.050;2023-05-29T11:33:40;33.20;50.20
25188;DHT22;13141;50.414;8.050;2023-05-29T11:36:09;33.40;52.10
25188;DHT22;13141;50.414;8.050;2023-05-29T11:38:36;33.50;54.10
25188;DHT22;13141;50.414;8.050;2023-05-29T11:41:02;33.60;49.20
25188;DHT22;13141;50.414;8.050;2023-05-29T11:43:28;33.60;53.00
25188;DHT22;13141;50.414;8.050;2023-05-29T11:45:54;33.60;51.80
25188;DHT22;13141;50.414;8.050;2023-05-29T11:48:19;33.70;51.60
25188;DHT22;13141;50.414;8.050;2023-05-29T11:50:45;33.90;52.20
25188;DHT22;13141;50.414;8.050;2023-05-29T11:53:12;34.10;53.60
25188;DHT22;13141;50.414;8.050;2023-05-29T11:55:38;34.40;54.00
25188;DHT22;13141;50.414;8.050;2023-05-29T11:58:04;34.70;51.50
25188;DHT22;13141;50.414;8.050;2023-05-29T12:00:31;34.80;51.80
25188;DHT22;13141;50.414;8.050;2023-05-29T12:02:58;34.70;51.80
25188;DHT22;13141;50.414;8.050;2023-05-29T12:05:24;34.60;52.00
25188;DHT22;13141;50.414;8.050;2023-05-29T12:07:54;34.70;53.10
25188;DHT22;13141;50.414;8.050;2023-05-29T12:10:22;34.90;51.80
25188;DHT22;13141;50.414;8.050;2023-05-29T12:12:49;34.90;51.20
25188;DHT22;13141;50.414;8.050;2023-05-29T12:15:15;35.10;51.90
25188;DHT22;13141;50.414;8.050;2023-05-29T12:17:42;35.30;52.30
25188;DHT22;13141;50.414;8.050;2023-05-29T12:20:09;35.50;51.20
25188;DHT22;13141;50.414;8.050;2023-05-29T12:22:38;35.60;51.40
25188;DHT22;13141;50.414;8.050;2023-05-29T12:25:09;35.70;51.10
25188;DHT22;13141;50.414;8.050;2023-05-29T12:27:37;35.40;51.00
25188;DHT22;13141;50.414;8.050;2023-05-29T12:30:04;35.30;51.30
25188;DHT22;13141;50.414;8.050;2023-05-29T12:32:35;35.40;50.50
25188;DHT22;13141;50.414;8.050;2023-05-29T12:35:01;35.20;48.70
25188;DHT22;13141;50.414;8.050;2023-05-29T12:37:26;35.30;48.50
25188;DHT22;13141;50.414;8.050;2023-05-29T12:40:13;35.20;51.10
25188;DHT22;13141;50.414;8.050;2023-05-29T12:42:40;35.50;50.90
25188;DHT22;13141;50.414;8.050;2023-05-29T12:45:07;35.60;49.20
25188;DHT22;13141;50.414;8.050;2023-05-29T12:47:33;35.70;48.50
25188;DHT22;13141;50.414;8.050;2023-05-29T12:49:58;35.80;48.80
25188;DHT22;13141;50.414;8.050;2023-05-29T12:52:24;35.80;49.10
25188;DHT22;13141;50.414;8.050;2023-05-29T12:54:50;35.70;47.10
25188;DHT22;13141;50.414;8.050;2023-05-29T12:57:15;35.80;47.30
25188;DHT22;13141;50.414;8.050;2023-05-29T12:59:43;35.90;46.70
25188;DHT22;13141;50.414;8.050;2023-05-29T13:02:08;35.80;48.00
25188;DHT22;13141;50.414;8.050;2023-05-29T13:04:34;36.00;48.40
25188;DHT22;13141;50.414;8.050;2023-05-29T13:06:59;36.00;48.50
25188;DHT22;13141;50.414;8.050;2023-05-29T13:09:25;35.60;46.50
25188;DHT22;13141;50.414;8.050;2023-05-29T13:11:51;35.50;49.50
25188;DHT22;13141;50.414;8.050;2023-05-29T13:14:16;35.70;49.50
25188;DHT22;13141;50.414;8.050;2023-05-29T13:16:44;36.00;50.50
25188;DHT22;13141;50.414;8.050;2023-05-29T13:19:09;36.00;46.30
25188;DHT22;13141;50.414;8.050;2023-05-29T13:21:35;36.00;46.40
25188;DHT22;13141;50.414;8.050;2023-05-29T13:24:01;35.60;43.70
25188;DHT22;13141;50.414;8.050;2023-05-29T13:26:26;35.50;47.50
25188;DHT22;13141;50.414;8.050;2023-05-29T13:28:52;35.70;47.70
25188;DHT22;13141;50.414;8.050;2023-05-29T13:31:17;35.70;47.50
25188;DHT22;13141;50.414;8.050;2023-05-29T13:33:45;35.70;47.20
25188;DHT22;13141;50.414;8.050;2023-05-29T13:36:10;35.40;46.30
25188;DHT22;13141;50.414;8.050;2023-05-29T13:38:36;35.30;47.90
25188;DHT22;13141;50.414;8.050;2023-05-29T13:41:01;35.40;46.40
25188;DHT22;13141;50.414;8.050;2023-05-29T13:43:27;34.90;46.70
25188;DHT22;13141;50.414;8.050;2023-05-29T13:45:53;34.50;48.90
25188;DHT22;13141;50.414;8.050;2023-05-29T13:48:18;34.60;48.50
25188;DHT22;13141;50.414;8.050;2023-05-29T13:50:45;34.90;49.00
25188;DHT22;13141;50.414;8.050;2023-05-29T13:53:11;35.10;49.80
25188;DHT22;13141;50.414;8.050;2023-05-29T13:55:36;35.30;49.70
25188;DHT22;13141;50.414;8.050;2023-05-29T13:58:03;35.40;48.30
25188;DHT22;13141;50.414;8.050;2023-05-29T14:00:29;35.50;48.20
25188;DHT22;13141;50.414;8.050;2023-05-29T14:02:55;35.40;47.50
25188;DHT22;13141;50.414;8.050;2023-05-29T14:05:20;35.30;47.80
25188;DHT22;13141;50.414;8.050;2023-05-29T14:07:47;35.30;48.90
25188;DHT22;13141;50.414;8.050;2023-05-29T14:10:13;35.30;47.50
25188;DHT22;13141;50.414;8.050;2023-05-29T14:12:38;35.10;48.10
25188;DHT22;13141;50.414;8.050;2023-05-29T14:15:05;35.20;47.50
25188;DHT22;13141;50.414;8.050;2023-05-29T14:17:31;35.30;48.30
25188;DHT22;13141;50.414;8.050;2023-05-29T14:19:57;35.30;46.20
25188;DHT22;13141;50.414;8.050;2023-05-29T14:22:23;35.40;48.50
25188;DHT22;13141;50.414;8.050;2023-05-29T14:24:50;35.60;49.30
25188;DHT22;13141;50.414;8.050;2023-05-29T14:27:17;35.70;45.10
25188;DHT22;13141;50.414;8.050;2023-05-29T14:29:43;35.50;45.10
25188;DHT22;13141;50.414;8.050;2023-05-29T14:32:09;35.60;46.80
25188;DHT22;13141;50.414;8.050;2023-05-29T14:34:34;35.70;47.10
25188;DHT22;13141;50.414;8.050;2023-05-29T14:37:00;35.30;46.50
25188;DHT22;13141;50.414;8.050;2023-05-29T14:39:26;35.10;46.60
25188;DHT22;13141;50.414;8.050;2023-05-29T14:41:53;35.00;46.30
25188;DHT22;13141;50.414;8.050;2023-05-29T14:44:18;34.50;45.90
25188;DHT22;13141;50.414;8.050;2023-05-29T14:46:44;34.40;46.60
25188;DHT22;13141;50.414;8.050;2023-05-29T14:49:10;34.50;47.00
25188;DHT22;13141;50.414;8.050;2023-05-29T14:51:35;34.50;47.60
25188;DHT22;13141;50.414;8.050;2023-05-29T14:54:01;34.20;47.40
25188;DHT22;13141;50.414;8.050;2023-05-29T14:56:27;34.20;47.80
25188;DHT22;13141;50.414;8.050;2023-05-29T14:58:54;34.20;47.30
25188;DHT22;13141;50.414;8.050;2023-05-29T15:01:19;34.30;47.80
25188;DHT22;13141;50.414;8.050;2023-05-29T15:03:45;34.30;48.10
25188;DHT22;13141;50.414;8.050;2023-05-29T15:06:15;34.40;48.30
25188;DHT22;13141;50.414;8.050;2023-05-29T15:08:41;34.40;48.10
25188;DHT22;13141;50.414;8.050;2023-05-29T15:11:07;34.30;46.60
25188;DHT22;13141;50.414;8.050;2023-05-29T15:13:33;34.50;45.90
25188;DHT22;13141;50.414;8.050;2023-05-29T15:16:00;34.50;48.20
25188;DHT22;13141;50.414;8.050;2023-05-29T15:18:26;34.50;47.90
25188;DHT22;13141;50.414;8.050;2023-05-29T15:20:51;34.60;48.80
25188;DHT22;13141;50.414;8.050;2023-05-29T15:23:18;34.60;48.60
25188;DHT22;13141;50.414;8.050;2023-05-29T15:25:44;34.40;47.90
25188;DHT22;13141;50.414;8.050;2023-05-29T15:28:10;34.20;47.80
25188;DHT22;13141;50.414;8.050;2023-05-29T15:30:35;34.10;46.80